sensor_id;sensor_type;location;lat;lon;timestamp;P1;durP1;ratioP1;P2;durP2;ratioP2
16133;SDS011;8172;45.018;5.972;2023-04-29T00:04:06;2.50;;;1.50;;
16133;SDS011;8172;45.018;5.972;2023-04-29T00:09:15;1.73;;;1.50;;
16133;SDS011;8172;45.018;5.972;2023-04-29T00:14:23;2.00;;;1.40;;
16133;SDS011;8172;45.018;5.972;2023-04-29T00:19:32;1.50;;;1.37;;
16133;SDS011;8172;45.018;5.972;2023-04-29T00:24:40;1.70;;;1.60;;
16133;SDS011;8172;45.018;5.972;2023-04-29T00:29:48;2.50;;;1.60;;
16133;SDS011;8172;45.018;5.972;2023-04-29T00:34:59;2.53;;;1.60;;
16133;SDS011;8172;45.018;5.972;2023-04-29T00:40:08;2.17;;;1.70;;
16133;SDS011;8172;45.018;5.972;2023-04-29T00:45:17;1.83;;;1.40;;
16133;SDS011;8172;45.018;5.972;2023-04-29T00:50:26;1.60;;;1.50;;
16133;SDS011;8172;45.018;5.972;2023-04-29T00:55:37;2.87;;;1.40;;
16133;SDS011;8172;45.018;5.972;2023-04-29T01:00:46;2.30;;;1.60;;
16133;SDS011;8172;45.018;5.972;2023-04-29T01:05:58;4.73;;;1.60;;
16133;SDS011;8172;45.018;5.972;2023-04-29T01:11:07;1.50;;;1.40;;
16133;SDS011;8172;45.018;5.972;2023-04-29T01:16:20;1.97;;;1.33;;
16133;SDS011;8172;45.018;5.972;2023-04-29T01:21:31;1.90;;;1.50;;
16133;SDS011;8172;45.018;5.972;2023-04-29T01:26:43;3.33;;;1.40;;
16133;SDS011;8172;45.018;5.972;2023-04-29T01:31:57;3.50;;;1.20;;
16133;SDS011;8172;45.018;5.972;2023-04-29T01:42:23;2.27;;;1.60;;
16133;SDS011;8172;45.018;5.972;2023-04-29T01:47:34;2.03;;;1.63;;
16133;SDS011;8172;45.018;5.972;2023-04-29T01:52:45;1.83;;;1.57;;
16133;SDS011;8172;45.018;5.972;2023-04-29T01:57:56;2.70;;;1.70;;
16133;SDS011;8172;45.018;5.972;2023-04-29T02:03:07;2.33;;;1.73;;
16133;SDS011;8172;45.018;5.972;2023-04-29T02:08:18;2.90;;;1.40;;
16133;SDS011;8172;45.018;5.972;2023-04-29T02:13:29;1.60;;;1.50;;
16133;SDS011;8172;45.018;5.972;2023-04-29T02:18:43;3.30;;;1.50;;
16133;SDS011;8172;45.018;5.972;2023-04-29T02:23:53;1.60;;;1.40;;
16133;SDS011;8172;45.018;5.972;2023-04-29T02:29:01;1.50;;;1.40;;
16133;SDS011;8172;45.018;5.972;2023-04-29T02:34:10;1.67;;;1.57;;
16133;SDS011;8172;45.018;5.972;2023-04-29T02:39:18;1.70;;;1.60;;
16133;SDS011;8172;45.018;5.972;2023-04-29T02:44:26;2.07;;;1.70;;
16133;SDS011;8172;45.018;5.972;2023-04-29T02:49:37;3.10;;;1.67;;
16133;SDS011;8172;45.018;5.972;2023-04-29T02:54:45;1.80;;;1.60;;
16133;SDS011;8172;45.018;5.972;2023-04-29T02:59:54;3.33;;;1.80;;
16133;SDS011;8172;45.018;5.972;2023-04-29T03:05:04;1.70;;;1.60;;
16133;SDS011;8172;45.018;5.972;2023-04-29T03:10:13;2.37;;;1.97;;
16133;SDS011;8172;45.018;5.972;2023-04-29T03:15:23;1.73;;;1.60;;
16133;SDS011;8172;45.018;5.972;2023-04-29T03:20:31;2.20;;;1.60;;
16133;SDS011;8172;45.018;5.972;2023-04-29T03:25:39;2.23;;;1.70;;
16133;SDS011;8172;45.018;5.972;2023-04-29T03:30:50;2.17;;;1.80;;
16133;SDS011;8172;45.018;5.972;2023-04-29T03:35:58;2.93;;;2.00;;
16133;SDS011;8172;45.018;5.972;2023-04-29T03:41:08;2.53;;;1.90;;
16133;SDS011;8172;45.018;5.972;2023-04-29T03:46:17;4.03;;;1.80;;
16133;SDS011;8172;45.018;5.972;2023-04-29T03:51:26;1.50;;;1.37;;
16133;SDS011;8172;45.018;5.972;2023-04-29T03:56:36;2.17;;;1.57;;
16133;SDS011;8172;45.018;5.972;2023-04-29T04:01:45;5.10;;;2.00;;
16133;SDS011;8172;45.018;5.972;2023-04-29T04:06:54;2.30;;;2.00;;
16133;SDS011;8172;45.018;5.972;2023-04-29T04:12:05;4.37;;;2.03;;
16133;SDS011;8172;45.018;5.972;2023-04-29T04:17:17;2.83;;;2.20;;
16133;SDS011;8172;45.018;5.972;2023-04-29T04:22:28;2.60;;;2.10;;
16133;SDS011;8172;45.018;5.972;2023-04-29T04:27:38;2.50;;;2.30;;
16133;SDS011;8172;45.018;5.972;2023-04-29T04:32:49;2.70;;;2.10;;
16133;SDS011;8172;45.018;5.972;2023-04-29T04:38:00;2.90;;;2.40;;
16133;SDS011;8172;45.018;5.972;2023-04-29T04:43:09;2.13;;;1.87;;
16133;SDS011;8172;45.018;5.972;2023-04-29T04:48:18;2.30;;;1.90;;
16133;SDS011;8172;45.018;5.972;2023-04-29T04:53:28;2.43;;;2.20;;
16133;SDS011;8172;45.018;5.972;2023-04-29T04:58:38;2.57;;;2.33;;
16133;SDS011;8172;45.018;5.972;2023-04-29T05:03:47;2.20;;;2.00;;
16133;SDS011;8172;45.018;5.972;2023-04-29T05:08:58;3.23;;;2.10;;
16133;SDS011;8172;45.018;5.972;2023-04-29T05:14:08;2.43;;;1.90;;
16133;SDS011;8172;45.018;5.972;2023-04-29T05:19:17;3.37;;;1.83;;
16133;SDS011;8172;45.018;5.972;2023-04-29T05:24:28;2.00;;;1.80;;
16133;SDS011;8172;45.018;5.972;2023-04-29T05:29:36;2.33;;;2.13;;
16133;SDS011;8172;45.018;5.972;2023-04-29T05:34:44;89.20;;;5.63;;
16133;SDS011;8172;45.018;5.972;2023-04-29T05:39:54;26.57;;;3.57;;
16133;SDS011;8172;45.018;5.972;2023-04-29T05:45:04;2.93;;;2.20;;
16133;SDS011;8172;45.018;5.972;2023-04-29T05:50:13;68.93;;;5.20;;
16133;SDS011;8172;45.018;5.972;2023-04-29T05:55:21;16.00;;;3.13;;
16133;SDS011;8172;45.018;5.972;2023-04-29T06:00:30;2.50;;;2.23;;
16133;SDS011;8172;45.018;5.972;2023-04-29T06:05:40;3.13;;;2.30;;
16133;SDS011;8172;45.018;5.972;2023-04-29T06:10:54;4.90;;;2.27;;
16133;SDS011;8172;45.018;5.972;2023-04-29T06:16:06;2.63;;;1.80;;
16133;SDS011;8172;45.018;5.972;2023-04-29T06:21:15;2.10;;;1.60;;
16133;SDS011;8172;45.018;5.972;2023-04-29T06:26:23;1.83;;;1.63;;
16133;SDS011;8172;45.018;5.972;2023-04-29T06:31:32;1.73;;;1.50;;
16133;SDS011;8172;45.018;5.972;2023-04-29T06:36:42;1.50;;;1.40;;
16133;SDS011;8172;45.018;5.972;2023-04-29T06:41:52;1.60;;;1.40;;
16133;SDS011;8172;45.018;5.972;2023-04-29T06:47:02;2.17;;;1.60;;
16133;SDS011;8172;45.018;5.972;2023-04-29T06:52:12;1.70;;;1.60;;
16133;SDS011;8172;45.018;5.972;2023-04-29T06:57:21;2.50;;;1.50;;
16133;SDS011;8172;45.018;5.972;2023-04-29T07:02:32;2.80;;;1.50;;
16133;SDS011;8172;45.018;5.972;2023-04-29T07:07:41;1.70;;;1.60;;
16133;SDS011;8172;45.018;5.972;2023-04-29T07:12:49;2.77;;;1.47;;
16133;SDS011;8172;45.018;5.972;2023-04-29T07:17:59;1.50;;;1.40;;
16133;SDS011;8172;45.018;5.972;2023-04-29T07:23:07;1.63;;;1.40;;
16133;SDS011;8172;45.018;5.972;2023-04-29T07:28:18;1.50;;;1.40;;
16133;SDS011;8172;45.018;5.972;2023-04-29T07:33:28;2.40;;;1.67;;
16133;SDS011;8172;45.018;5.972;2023-04-29T07:38:37;2.47;;;1.40;;
16133;SDS011;8172;45.018;5.972;2023-04-29T07:43:47;2.33;;;1.70;;
16133;SDS011;8172;45.018;5.972;2023-04-29T07:48:55;1.70;;;1.57;;
16133;SDS011;8172;45.018;5.972;2023-04-29T07:54:04;2.77;;;1.70;;
16133;SDS011;8172;45.018;5.972;2023-04-29T07:59:14;2.17;;;1.60;;
16133;SDS011;8172;45.018;5.972;2023-04-29T08:04:23;2.67;;;1.73;;
16133;SDS011;8172;45.018;5.972;2023-04-29T08:09:34;1.87;;;1.40;;
16133;SDS011;8172;45.018;5.972;2023-04-29T08:14:42;3.03;;;1.70;;
16133;SDS011;8172;45.018;5.972;2023-04-29T08:19:52;1.40;;;1.30;;
16133;SDS011;8172;45.018;5.972;2023-04-29T08:25:03;1.50;;;1.40;;
16133;SDS011;8172;45.018;5.972;2023-04-29T08:30:12;1.27;;;1.17;;
16133;SDS011;8172;45.018;5.972;2023-04-29T08:35:21;2.40;;;1.23;;
16133;SDS011;8172;45.018;5.972;2023-04-29T08:45:42;1.87;;;1.30;;
16133;SDS011;8172;45.018;5.972;2023-04-29T08:50:51;1.40;;;1.30;;
16133;SDS011;8172;45.018;5.972;2023-04-29T08:56:02;4.40;;;1.40;;
16133;SDS011;8172;45.018;5.972;2023-04-29T09:01:11;2.07;;;1.30;;
16133;SDS011;8172;45.018;5.972;2023-04-29T09:06:21;1.53;;;1.30;;
16133;SDS011;8172;45.018;5.972;2023-04-29T09:11:29;1.10;;;1.00;;
16133;SDS011;8172;45.018;5.972;2023-04-29T09:16:38;1.10;;;1.00;;
16133;SDS011;8172;45.018;5.972;2023-04-29T09:21:52;1.43;;;1.00;;
16133;SDS011;8172;45.018;5.972;2023-04-29T09:26:59;1.20;;;1.10;;
16133;SDS011;8172;45.018;5.972;2023-04-29T09:42:40;1.30;;;1.20;;
16133;SDS011;8172;45.018;5.972;2023-04-29T09:47:42;1.43;;;1.20;;
16133;SDS011;8172;45.018;5.972;2023-04-29T09:52:51;1.30;;;1.20;;
16133;SDS011;8172;45.018;5.972;2023-04-29T09:58:00;1.50;;;1.13;;
16133;SDS011;8172;45.018;5.972;2023-04-29T10:03:13;1.40;;;1.30;;
16133;SDS011;8172;45.018;5.972;2023-04-29T10:08:22;1.50;;;1.40;;
16133;SDS011;8172;45.018;5.972;2023-04-29T10:13:33;1.93;;;1.60;;
16133;SDS011;8172;45.018;5.972;2023-04-29T10:18:48;2.53;;;1.80;;
16133;SDS011;8172;45.018;5.972;2023-04-29T10:23:57;3.77;;;2.43;;
16133;SDS011;8172;45.018;5.972;2023-04-29T10:29:08;3.60;;;2.40;;
16133;SDS011;8172;45.018;5.972;2023-04-29T10:34:21;2.70;;;2.40;;
16133;SDS011;8172;45.018;5.972;2023-04-29T10:39:35;3.43;;;2.80;;
16133;SDS011;8172;45.018;5.972;2023-04-29T10:55:05;3.70;;;3.17;;
16133;SDS011;8172;45.018;5.972;2023-04-29T11:00:20;4.47;;;3.27;;
16133;SDS011;8172;45.018;5.972;2023-04-29T11:10:39;4.23;;;3.83;;
16133;SDS011;8172;45.018;5.972;2023-04-29T11:15:48;4.90;;;4.17;;
16133;SDS011;8172;45.018;5.972;2023-04-29T11:26:09;4.77;;;4.20;;
16133;SDS011;8172;45.018;5.972;2023-04-29T11:31:17;5.03;;;4.53;;
16133;SDS011;8172;45.018;5.972;2023-04-29T11:36:26;5.10;;;4.23;;
16133;SDS011;8172;45.018;5.972;2023-04-29T11:41:34;3.63;;;3.33;;
16133;SDS011;8172;45.018;5.972;2023-04-29T11:46:45;4.53;;;3.87;;
16133;SDS011;8172;45.018;5.972;2023-04-29T11:51:53;3.97;;;3.67;;
16133;SDS011;8172;45.018;5.972;2023-04-29T11:57:01;3.70;;;3.40;;
16133;SDS011;8172;45.018;5.972;2023-04-29T12:02:11;4.07;;;3.60;;
16133;SDS011;8172;45.018;5.972;2023-04-29T12:07:21;3.90;;;3.50;;
16133;SDS011;8172;45.018;5.972;2023-04-29T12:12:30;3.50;;;3.20;;
16133;SDS011;8172;45.018;5.972;2023-04-29T12:17:41;6.00;;;3.00;;
16133;SDS011;8172;45.018;5.972;2023-04-29T12:22:52;2.90;;;2.60;;
16133;SDS011;8172;45.018;5.972;2023-04-29T12:28:01;2.60;;;2.40;;
16133;SDS011;8172;45.018;5.972;2023-04-29T12:38:25;3.10;;;2.77;;
16133;SDS011;8172;45.018;5.972;2023-04-29T12:43:34;3.77;;;2.70;;
16133;SDS011;8172;45.018;5.972;2023-04-29T12:48:43;2.60;;;2.40;;
16133;SDS011;8172;45.018;5.972;2023-04-29T12:53:53;2.50;;;2.30;;
16133;SDS011;8172;45.018;5.972;2023-04-29T13:04:12;2.50;;;2.30;;
16133;SDS011;8172;45.018;5.972;2023-04-29T13:09:24;2.63;;;1.80;;
16133;SDS011;8172;45.018;5.972;2023-04-29T13:14:32;2.30;;;2.10;;
16133;SDS011;8172;45.018;5.972;2023-04-29T13:19:41;1.80;;;1.70;;
16133;SDS011;8172;45.018;5.972;2023-04-29T13:24:52;1.90;;;1.80;;
16133;SDS011;8172;45.018;5.972;2023-04-29T13:30:00;2.73;;;1.60;;
16133;SDS011;8172;45.018;5.972;2023-04-29T13:35:09;2.67;;;1.60;;
16133;SDS011;8172;45.018;5.972;2023-04-29T13:40:18;2.43;;;2.23;;
16133;SDS011;8172;45.018;5.972;2023-04-29T13:45:31;2.30;;;2.10;;
16133;SDS011;8172;45.018;5.972;2023-04-29T13:50:42;2.50;;;2.30;;
16133;SDS011;8172;45.018;5.972;2023-04-29T13:55:52;2.37;;;2.17;;
16133;SDS011;8172;45.018;5.972;2023-04-29T14:01:02;3.33;;;2.53;;
16133;SDS011;8172;45.018;5.972;2023-04-29T14:06:12;2.53;;;2.33;;
16133;SDS011;8172;45.018;5.972;2023-04-29T14:11:23;2.40;;;2.20;;
16133;SDS011;8172;45.018;5.972;2023-04-29T14:16:34;2.03;;;1.83;;
16133;SDS011;8172;45.018;5.972;2023-04-29T14:21:42;2.10;;;1.80;;
16133;SDS011;8172;45.018;5.972;2023-04-29T14:26:51;1.90;;;1.70;;
16133;SDS011;8172;45.018;5.972;2023-04-29T14:31:59;2.20;;;1.87;;
16133;SDS011;8172;45.018;5.972;2023-04-29T14:37:07;2.17;;;1.97;;
16133;SDS011;8172;45.018;5.972;2023-04-29T14:42:18;2.00;;;1.80;;
16133;SDS011;8172;45.018;5.972;2023-04-29T14:47:26;1.70;;;1.60;;
16133;SDS011;8172;45.018;5.972;2023-04-29T14:52:34;2.17;;;1.97;;
16133;SDS011;8172;45.018;5.972;2023-04-29T14:57:43;3.10;;;1.80;;
16133;SDS011;8172;45.018;5.972;2023-04-29T15:02:52;2.10;;;1.87;;
16133;SDS011;8172;45.018;5.972;2023-04-29T15:08:03;4.60;;;1.97;;
16133;SDS011;8172;45.018;5.972;2023-04-29T15:13:13;4.53;;;2.00;;
16133;SDS011;8172;45.018;5.972;2023-04-29T15:18:22;2.70;;;2.03;;
16133;SDS011;8172;45.018;5.972;2023-04-29T15:23:31;2.70;;;2.50;;
16133;SDS011;8172;45.018;5.972;2023-04-29T15:28:40;3.63;;;2.57;;
16133;SDS011;8172;45.018;5.972;2023-04-29T15:33:52;3.00;;;2.50;;
16133;SDS011;8172;45.018;5.972;2023-04-29T15:39:01;3.40;;;2.80;;
16133;SDS011;8172;45.018;5.972;2023-04-29T15:44:13;3.47;;;2.60;;
16133;SDS011;8172;45.018;5.972;2023-04-29T15:49:22;3.03;;;2.70;;
16133;SDS011;8172;45.018;5.972;2023-04-29T15:54:33;4.27;;;2.50;;
16133;SDS011;8172;45.018;5.972;2023-04-29T15:59:43;2.63;;;2.43;;
16133;SDS011;8172;45.018;5.972;2023-04-29T16:04:52;3.03;;;2.50;;
16133;SDS011;8172;45.018;5.972;2023-04-29T16:10:02;2.53;;;2.03;;
16133;SDS011;8172;45.018;5.972;2023-04-29T16:15:11;2.53;;;1.80;;
16133;SDS011;8172;45.018;5.972;2023-04-29T16:20:20;3.03;;;1.60;;
16133;SDS011;8172;45.018;5.972;2023-04-29T16:25:29;1.60;;;1.50;;
16133;SDS011;8172;45.018;5.972;2023-04-29T16:30:39;1.87;;;1.53;;
16133;SDS011;8172;45.018;5.972;2023-04-29T16:35:50;2.43;;;1.50;;
16133;SDS011;8172;45.018;5.972;2023-04-29T16:41:03;3.67;;;1.90;;
16133;SDS011;8172;45.018;5.972;2023-04-29T16:46:14;5.10;;;1.90;;
16133;SDS011;8172;45.018;5.972;2023-04-29T16:51:24;1.70;;;1.60;;
16133;SDS011;8172;45.018;5.972;2023-04-29T16:56:38;1.67;;;1.50;;
16133;SDS011;8172;45.018;5.972;2023-04-29T17:01:47;2.43;;;1.90;;
16133;SDS011;8172;45.018;5.972;2023-04-29T17:06:56;1.70;;;1.60;;
16133;SDS011;8172;45.018;5.972;2023-04-29T17:12:07;1.93;;;1.73;;
16133;SDS011;8172;45.018;5.972;2023-04-29T17:17:16;2.67;;;1.90;;
16133;SDS011;8172;45.018;5.972;2023-04-29T17:22:25;2.17;;;1.97;;
16133;SDS011;8172;45.018;5.972;2023-04-29T17:27:33;4.43;;;2.40;;
16133;SDS011;8172;45.018;5.972;2023-04-29T17:32:43;2.00;;;1.70;;
16133;SDS011;8172;45.018;5.972;2023-04-29T17:37:54;1.63;;;1.53;;
16133;SDS011;8172;45.018;5.972;2023-04-29T17:43:03;2.87;;;1.70;;
16133;SDS011;8172;45.018;5.972;2023-04-29T17:48:13;1.90;;;1.70;;
16133;SDS011;8172;45.018;5.972;2023-04-29T17:53:23;1.70;;;1.60;;
16133;SDS011;8172;45.018;5.972;2023-04-29T17:58:31;2.10;;;1.60;;
16133;SDS011;8172;45.018;5.972;2023-04-29T18:03:40;1.70;;;1.60;;
16133;SDS011;8172;45.018;5.972;2023-04-29T18:08:51;2.27;;;1.63;;
16133;SDS011;8172;45.018;5.972;2023-04-29T18:14:01;2.10;;;1.90;;
16133;SDS011;8172;45.018;5.972;2023-04-29T18:19:14;2.23;;;1.60;;
16133;SDS011;8172;45.018;5.972;2023-04-29T18:24:24;2.20;;;1.80;;
16133;SDS011;8172;45.018;5.972;2023-04-29T18:29:35;3.03;;;1.70;;
16133;SDS011;8172;45.018;5.972;2023-04-29T18:34:43;2.47;;;1.73;;
16133;SDS011;8172;45.018;5.972;2023-04-29T18:39:52;2.43;;;1.83;;
16133;SDS011;8172;45.018;5.972;2023-04-29T18:45:00;1.97;;;1.70;;
16133;SDS011;8172;45.018;5.972;2023-04-29T18:50:09;3.50;;;1.77;;
16133;SDS011;8172;45.018;5.972;2023-04-29T18:55:17;2.50;;;1.70;;
16133;SDS011;8172;45.018;5.972;2023-04-29T19:00:27;1.40;;;1.30;;
16133;SDS011;8172;45.018;5.972;2023-04-29T19:05:36;3.73;;;1.30;;
16133;SDS011;8172;45.018;5.972;2023-04-29T19:10:46;4.90;;;1.57;;
16133;SDS011;8172;45.018;5.972;2023-04-29T19:15:54;1.70;;;1.60;;
16133;SDS011;8172;45.018;5.972;2023-04-29T19:21:03;2.10;;;1.50;;
16133;SDS011;8172;45.018;5.972;2023-04-29T19:26:13;2.23;;;1.70;;
16133;SDS011;8172;45.018;5.972;2023-04-29T19:31:22;3.70;;;2.60;;
16133;SDS011;8172;45.018;5.972;2023-04-29T19:36:31;3.77;;;3.40;;
16133;SDS011;8172;45.018;5.972;2023-04-29T19:41:39;4.13;;;3.83;;
16133;SDS011;8172;45.018;5.972;2023-04-29T19:46:48;3.37;;;3.07;;
16133;SDS011;8172;45.018;5.972;2023-04-29T19:51:59;3.87;;;2.50;;
16133;SDS011;8172;45.018;5.972;2023-04-29T19:57:06;3.70;;;3.40;;
16133;SDS011;8172;45.018;5.972;2023-04-29T20:02:17;5.53;;;3.13;;
16133;SDS011;8172;45.018;5.972;2023-04-29T20:07:26;4.50;;;3.03;;
16133;SDS011;8172;45.018;5.972;2023-04-29T20:12:37;9.23;;;3.33;;
16133;SDS011;8172;45.018;5.972;2023-04-29T20:17:46;6.90;;;3.20;;
16133;SDS011;8172;45.018;5.972;2023-04-29T20:22:56;4.00;;;3.70;;
16133;SDS011;8172;45.018;5.972;2023-04-29T20:28:05;4.00;;;3.60;;
16133;SDS011;8172;45.018;5.972;2023-04-29T20:33:15;5.83;;;3.83;;
16133;SDS011;8172;45.018;5.972;2023-04-29T20:38:24;2.60;;;2.30;;
16133;SDS011;8172;45.018;5.972;2023-04-29T20:43:33;4.03;;;2.20;;
16133;SDS011;8172;45.018;5.972;2023-04-29T20:48:44;3.63;;;2.80;;
16133;SDS011;8172;45.018;5.972;2023-04-29T20:53:53;2.80;;;2.50;;
16133;SDS011;8172;45.018;5.972;2023-04-29T20:59:01;2.60;;;2.30;;
16133;SDS011;8172;45.018;5.972;2023-04-29T21:04:10;3.53;;;2.30;;
16133;SDS011;8172;45.018;5.972;2023-04-29T21:09:19;8.87;;;2.77;;
16133;SDS011;8172;45.018;5.972;2023-04-29T21:14:28;5.07;;;3.60;;
16133;SDS011;8172;45.018;5.972;2023-04-29T21:19:36;4.37;;;3.77;;
16133;SDS011;8172;45.018;5.972;2023-04-29T21:24:45;3.60;;;3.30;;
16133;SDS011;8172;45.018;5.972;2023-04-29T21:29:54;2.70;;;2.50;;
16133;SDS011;8172;45.018;5.972;2023-04-29T21:35:03;4.97;;;2.90;;
16133;SDS011;8172;45.018;5.972;2023-04-29T21:40:13;73.27;;;5.57;;
16133;SDS011;8172;45.018;5.972;2023-04-29T21:45:22;3.97;;;3.30;;
16133;SDS011;8172;45.018;5.972;2023-04-29T21:50:31;21.77;;;3.50;;
16133;SDS011;8172;45.018;5.972;2023-04-29T21:55:40;19.90;;;3.27;;
16133;SDS011;8172;45.018;5.972;2023-04-29T22:00:50;4.13;;;3.73;;
16133;SDS011;8172;45.018;5.972;2023-04-29T22:06:01;3.27;;;2.97;;
16133;SDS011;8172;45.018;5.972;2023-04-29T22:11:15;3.00;;;2.80;;
16133;SDS011;8172;45.018;5.972;2023-04-29T22:16:26;3.20;;;2.90;;
16133;SDS011;8172;45.018;5.972;2023-04-29T22:21:36;12.27;;;3.40;;
16133;SDS011;8172;45.018;5.972;2023-04-29T22:26:47;14.70;;;3.57;;
16133;SDS011;8172;45.018;5.972;2023-04-29T22:31:55;5.70;;;2.80;;
16133;SDS011;8172;45.018;5.972;2023-04-29T22:37:03;11.20;;;2.97;;
16133;SDS011;8172;45.018;5.972;2023-04-29T22:42:13;3.57;;;3.00;;
16133;SDS011;8172;45.018;5.972;2023-04-29T22:47:22;4.93;;;2.97;;
16133;SDS011;8172;45.018;5.972;2023-04-29T22:52:32;5.47;;;2.87;;
16133;SDS011;8172;45.018;5.972;2023-04-29T22:57:40;3.57;;;3.27;;
16133;SDS011;8172;45.018;5.972;2023-04-29T23:02:48;3.60;;;3.30;;
16133;SDS011;8172;45.018;5.972;2023-04-29T23:07:58;67.70;;;6.00;;
16133;SDS011;8172;45.018;5.972;2023-04-29T23:13:08;12.07;;;4.10;;
16133;SDS011;8172;45.018;5.972;2023-04-29T23:18:17;3.33;;;3.03;;
16133;SDS011;8172;45.018;5.972;2023-04-29T23:23:27;3.77;;;3.37;;
16133;SDS011;8172;45.018;5.972;2023-04-29T23:28:37;22.77;;;4.10;;
16133;SDS011;8172;45.018;5.972;2023-04-29T23:33:45;47.63;;;3.93;;
16133;SDS011;8172;45.018;5.972;2023-04-29T23:38:54;43.83;;;3.60;;
16133;SDS011;8172;45.018;5.972;2023-04-29T23:44:02;2.73;;;2.20;;
16133;SDS011;8172;45.018;5.972;2023-04-29T23:49:12;32.57;;;3.37;;
16133;SDS011;8172;45.018;5.972;2023-04-29T23:54:20;30.47;;;2.83;;
16133;SDS011;8172;45.018;5.972;2023-04-29T23:59:28;18.43;;;2.73;;
